N370MK MYNN-KOPF
Flight info
| Callsign | N370MK |
|---|---|
| Flight time | 0h 47m |
| Altitude | 19000 |
| Route | PEACH OLAHS3 |
| Aircraft | E55P/M-SBDFGHJ2RWY/LB2 |
Departure
| Time | 2026-04-23 20:25 |
|---|---|
| Airport | Lynden Pindling International Airport (MYNN) |
Arrival
| Time | 2026-04-23 21:13 |
|---|---|
| Airport | Miami-Opa Locka Executive Airport (KOPF) |
| Time | Latitude | Longitude | Altitude | Speed | Heading |
|---|---|---|---|---|---|
| 2026-04-23 19:54 | 25.04455 | -77.46072 | 4 ft | 0 kts | 161° |
| 2026-04-23 20:17 | 25.04454 | -77.46072 | 4 ft | 0 kts | 161° |
| 2026-04-23 20:17 | 25.04453 | -77.46071 | 4 ft | 1 kts | 165° |
| 2026-04-23 20:18 | 25.04441 | -77.46077 | 4 ft | 2 kts | 255° |
| 2026-04-23 20:18 | 25.04447 | -77.46098 | 4 ft | 3 kts | 296° |
| 2026-04-23 20:18 | 25.04459 | -77.46128 | 4 ft | 4 kts | 279° |
| 2026-04-23 20:18 | 25.04455 | -77.46162 | 4 ft | 5 kts | 259° |
| 2026-04-23 20:19 | 25.04454 | -77.46165 | 4 ft | 5 kts | 259° |
| 2026-04-23 20:19 | 25.04444 | -77.46217 | 4 ft | 9 kts | 249° |
| 2026-04-23 20:19 | 25.04415 | -77.46281 | 4 ft | 9 kts | 248° |
| 2026-04-23 20:19 | 25.04407 | -77.46346 | 4 ft | 8 kts | 309° |
| 2026-04-23 20:20 | 25.04442 | -77.46401 | 4 ft | 8 kts | 283° |
| 2026-04-23 20:20 | 25.04454 | -77.46462 | 4 ft | 5 kts | 281° |
| 2026-04-23 20:20 | 25.04467 | -77.46513 | 4 ft | 8 kts | 306° |
| 2026-04-23 20:20 | 25.04511 | -77.46564 | 4 ft | 11 kts | 315° |
| 2026-04-23 20:21 | 25.04568 | -77.46628 | 4 ft | 11 kts | 314° |
| 2026-04-23 20:21 | 25.04634 | -77.46699 | 4 ft | 14 kts | 316° |
| 2026-04-23 20:21 | 25.04709 | -77.46780 | 4 ft | 16 kts | 316° |
| 2026-04-23 20:21 | 25.04790 | -77.46868 | 4 ft | 16 kts | 314° |
| 2026-04-23 20:22 | 25.04867 | -77.46957 | 4 ft | 16 kts | 314° |
| 2026-04-23 20:22 | 25.04947 | -77.47045 | 4 ft | 16 kts | 315° |
| 2026-04-23 20:22 | 25.05027 | -77.47132 | 4 ft | 16 kts | 311° |
| 2026-04-23 20:22 | 25.05103 | -77.47223 | 4 ft | 16 kts | 316° |
| 2026-04-23 20:23 | 25.05181 | -77.47311 | 4 ft | 16 kts | 316° |
| 2026-04-23 20:23 | 25.05220 | -77.47416 | 4 ft | 15 kts | 265° |
| 2026-04-23 20:23 | 25.05187 | -77.47529 | 4 ft | 14 kts | 240° |
| 2026-04-23 20:23 | 25.05152 | -77.47536 | 4 ft | 4 kts | 134° |
| 2026-04-23 20:24 | 25.05151 | -77.47534 | 4 ft | 0 kts | 134° |
| 2026-04-23 20:24 | 25.05048 | -77.47420 | 4 ft | 55 kts | 134° |
| 2026-04-23 20:24 | 25.04610 | -77.46933 | 4 ft | 119 kts | 135° |
| 2026-04-23 20:24 | 25.03954 | -77.46188 | 183 ft | 146 kts | 135° |
| 2026-04-23 20:25 | 25.03201 | -77.45297 | 561 ft | 169 kts | 131° |
| 2026-04-23 20:25 | 25.02360 | -77.44251 | 929 ft | 194 kts | 133° |
| 2026-04-23 20:25 | 25.01336 | -77.43150 | 1223 ft | 224 kts | 134° |
| 2026-04-23 20:25 | 25.00122 | -77.41884 | 1599 ft | 247 kts | 133° |
| 2026-04-23 20:26 | 24.98873 | -77.40598 | 2497 ft | 245 kts | 134° |
| 2026-04-23 20:26 | 24.97660 | -77.39347 | 3409 ft | 243 kts | 134° |
| 2026-04-23 20:26 | 24.96492 | -77.37930 | 3888 ft | 257 kts | 117° |
| 2026-04-23 20:26 | 24.96251 | -77.35986 | 4534 ft | 262 kts | 77° |
| 2026-04-23 20:27 | 24.97156 | -77.34300 | 5405 ft | 262 kts | 44° |
| 2026-04-23 20:27 | 24.98538 | -77.33015 | 6151 ft | 265 kts | 41° |
| 2026-04-23 20:27 | 24.99967 | -77.31669 | 6812 ft | 272 kts | 41° |
| 2026-04-23 20:27 | 25.01397 | -77.30317 | 7547 ft | 275 kts | 41° |
| 2026-04-23 20:28 | 25.02840 | -77.28932 | 8244 ft | 279 kts | 40° |
| 2026-04-23 20:28 | 25.04554 | -77.27919 | 8843 ft | 284 kts | 10° |
| 2026-04-23 20:28 | 25.06510 | -77.28142 | 9556 ft | 285 kts | 338° |
| 2026-04-23 20:28 | 25.08132 | -77.29370 | 10298 ft | 285 kts | 314° |
| 2026-04-23 20:29 | 25.09463 | -77.30990 | 11026 ft | 285 kts | 310° |
| 2026-04-23 20:29 | 25.10723 | -77.32674 | 11736 ft | 286 kts | 308° |
| 2026-04-23 20:29 | 25.11993 | -77.34412 | 12169 ft | 297 kts | 308° |
| 2026-04-23 20:29 | 25.13350 | -77.36281 | 12361 ft | 316 kts | 308° |
| 2026-04-23 20:30 | 25.14732 | -77.38187 | 12958 ft | 320 kts | 308° |
| 2026-04-23 20:30 | 25.17495 | -77.41997 | 14392 ft | 317 kts | 307° |
| 2026-04-23 20:30 | 25.18875 | -77.43906 | 14925 ft | 321 kts | 307° |
| 2026-04-23 20:31 | 25.20267 | -77.45830 | 15508 ft | 324 kts | 307° |
| 2026-04-23 20:31 | 25.21685 | -77.47789 | 16077 ft | 327 kts | 307° |
| 2026-04-23 20:31 | 25.23107 | -77.49754 | 16644 ft | 330 kts | 307° |
| 2026-04-23 20:31 | 25.24548 | -77.51747 | 17211 ft | 331 kts | 307° |
| 2026-04-23 20:32 | 25.25985 | -77.53738 | 17724 ft | 334 kts | 307° |
| 2026-04-23 20:32 | 25.27439 | -77.55748 | 18221 ft | 337 kts | 307° |
| 2026-04-23 20:32 | 25.28919 | -77.57799 | 18723 ft | 339 kts | 307° |
| 2026-04-23 20:32 | 25.30400 | -77.59853 | 19020 ft | 348 kts | 306° |
| 2026-04-23 20:33 | 25.31935 | -77.61984 | 19061 ft | 363 kts | 307° |
| 2026-04-23 20:33 | 25.33542 | -77.64208 | 19065 ft | 376 kts | 307° |
| 2026-04-23 20:33 | 25.35218 | -77.66535 | 19065 ft | 389 kts | 306° |
| 2026-04-23 20:33 | 25.36927 | -77.68908 | 19072 ft | 400 kts | 307° |
| 2026-04-23 20:34 | 25.38670 | -77.71327 | 19072 ft | 401 kts | 307° |
| 2026-04-23 20:34 | 25.40385 | -77.73710 | 19055 ft | 390 kts | 307° |
| 2026-04-23 20:34 | 25.42041 | -77.76009 | 19053 ft | 380 kts | 307° |
| 2026-04-23 20:34 | 25.43595 | -77.78326 | 19030 ft | 371 kts | 295° |
| 2026-04-23 20:35 | 25.44182 | -77.81063 | 19074 ft | 361 kts | 274° |
| 2026-04-23 20:35 | 25.44534 | -77.83762 | 19068 ft | 355 kts | 282° |
| 2026-04-23 20:35 | 25.45025 | -77.86410 | 19055 ft | 350 kts | 282° |
| 2026-04-23 20:35 | 25.45566 | -77.89024 | 19054 ft | 346 kts | 283° |
| 2026-04-23 20:36 | 25.46114 | -77.91599 | 19057 ft | 342 kts | 283° |
| 2026-04-23 20:36 | 25.46672 | -77.94172 | 19055 ft | 339 kts | 283° |
| 2026-04-23 20:36 | 25.47222 | -77.96694 | 19054 ft | 336 kts | 283° |
| 2026-04-23 20:36 | 25.47763 | -77.99178 | 19060 ft | 334 kts | 283° |
| 2026-04-23 20:37 | 25.48307 | -78.01665 | 19058 ft | 332 kts | 283° |
| 2026-04-23 20:37 | 25.48847 | -78.04152 | 19058 ft | 330 kts | 283° |
| 2026-04-23 20:37 | 25.49383 | -78.06599 | 19054 ft | 328 kts | 283° |
| 2026-04-23 20:37 | 25.49917 | -78.09053 | 19055 ft | 327 kts | 283° |
| 2026-04-23 20:38 | 25.50443 | -78.11472 | 19057 ft | 325 kts | 283° |
| 2026-04-23 20:38 | 25.50978 | -78.13928 | 19058 ft | 324 kts | 283° |
| 2026-04-23 20:38 | 25.51503 | -78.16338 | 19056 ft | 323 kts | 283° |
| 2026-04-23 20:38 | 25.52060 | -78.18763 | 19053 ft | 322 kts | 284° |
| 2026-04-23 20:39 | 25.52610 | -78.21154 | 19055 ft | 321 kts | 284° |
| 2026-04-23 20:39 | 25.53157 | -78.23531 | 19054 ft | 321 kts | 284° |
| 2026-04-23 20:39 | 25.53707 | -78.25914 | 19052 ft | 320 kts | 284° |
| 2026-04-23 20:39 | 25.54258 | -78.28304 | 19051 ft | 320 kts | 284° |
| 2026-04-23 20:40 | 25.54806 | -78.30680 | 19055 ft | 320 kts | 284° |
| 2026-04-23 20:40 | 25.55354 | -78.33067 | 19056 ft | 320 kts | 284° |
| 2026-04-23 20:40 | 25.55908 | -78.35473 | 19053 ft | 321 kts | 284° |
| 2026-04-23 20:40 | 25.56457 | -78.37862 | 19050 ft | 321 kts | 284° |
| 2026-04-23 20:41 | 25.57005 | -78.40251 | 19051 ft | 321 kts | 284° |
| 2026-04-23 20:41 | 25.57559 | -78.42669 | 19053 ft | 321 kts | 284° |
| 2026-04-23 20:41 | 25.58107 | -78.45057 | 19047 ft | 321 kts | 284° |
| 2026-04-23 20:41 | 25.58651 | -78.47432 | 19047 ft | 321 kts | 284° |
| 2026-04-23 20:42 | 25.59200 | -78.49834 | 19050 ft | 321 kts | 284° |
| 2026-04-23 20:42 | 25.59751 | -78.52235 | 19049 ft | 321 kts | 284° |
| 2026-04-23 20:42 | 25.60300 | -78.54642 | 19048 ft | 322 kts | 284° |
| 2026-04-23 20:42 | 25.60845 | -78.57030 | 19050 ft | 322 kts | 284° |
| 2026-04-23 20:43 | 25.61397 | -78.59453 | 19047 ft | 322 kts | 284° |
| 2026-04-23 20:43 | 25.61950 | -78.61874 | 19046 ft | 322 kts | 284° |
| 2026-04-23 20:43 | 25.62495 | -78.64269 | 19049 ft | 322 kts | 284° |
| 2026-04-23 20:43 | 25.63051 | -78.66711 | 18751 ft | 332 kts | 283° |
| 2026-04-23 20:44 | 25.63627 | -78.69253 | 18386 ft | 342 kts | 283° |
| 2026-04-23 20:44 | 25.64223 | -78.71872 | 17998 ft | 350 kts | 283° |
| 2026-04-23 20:44 | 25.64834 | -78.74563 | 17595 ft | 357 kts | 283° |
| 2026-04-23 20:44 | 25.65436 | -78.77220 | 17193 ft | 359 kts | 283° |
| 2026-04-23 20:45 | 25.66048 | -78.79916 | 16792 ft | 357 kts | 283° |
| 2026-04-23 20:45 | 25.66647 | -78.82569 | 16393 ft | 356 kts | 283° |
| 2026-04-23 20:45 | 25.67251 | -78.85239 | 15946 ft | 356 kts | 283° |
| 2026-04-23 20:45 | 25.67850 | -78.87884 | 15529 ft | 355 kts | 283° |
| 2026-04-23 20:46 | 25.68450 | -78.90548 | 15122 ft | 353 kts | 284° |
| 2026-04-23 20:46 | 25.69027 | -78.93114 | 14739 ft | 351 kts | 284° |
| 2026-04-23 20:46 | 25.69634 | -78.95799 | 14329 ft | 349 kts | 284° |
| 2026-04-23 20:46 | 25.70212 | -78.98372 | 13948 ft | 347 kts | 284° |
| 2026-04-23 20:47 | 25.70798 | -79.00976 | 13562 ft | 345 kts | 284° |
| 2026-04-23 20:47 | 25.71375 | -79.03542 | 13181 ft | 343 kts | 284° |
| 2026-04-23 20:47 | 25.71949 | -79.06097 | 12805 ft | 341 kts | 284° |
| 2026-04-23 20:47 | 25.72514 | -79.08617 | 12430 ft | 339 kts | 284° |
| 2026-04-23 20:48 | 25.73086 | -79.11168 | 12056 ft | 337 kts | 284° |
| 2026-04-23 20:48 | 25.73648 | -79.13674 | 11687 ft | 335 kts | 284° |
| 2026-04-23 20:48 | 25.74204 | -79.16160 | 11324 ft | 333 kts | 284° |
| 2026-04-23 20:48 | 25.74763 | -79.18655 | 10953 ft | 331 kts | 284° |
| 2026-04-23 20:49 | 25.75316 | -79.21136 | 10591 ft | 330 kts | 284° |
| 2026-04-23 20:49 | 25.75864 | -79.23589 | 10228 ft | 328 kts | 284° |
| 2026-04-23 20:49 | 25.76407 | -79.26025 | 9872 ft | 326 kts | 284° |
| 2026-04-23 20:49 | 25.76948 | -79.28456 | 9514 ft | 325 kts | 284° |
| 2026-04-23 20:50 | 25.77486 | -79.30877 | 9163 ft | 324 kts | 284° |
| 2026-04-23 20:50 | 25.78024 | -79.33309 | 8807 ft | 323 kts | 284° |
| 2026-04-23 20:50 | 25.78563 | -79.35714 | 8459 ft | 322 kts | 285° |
| 2026-04-23 20:50 | 25.79094 | -79.38116 | 8109 ft | 321 kts | 285° |
| 2026-04-23 20:51 | 25.79627 | -79.40511 | 7757 ft | 320 kts | 285° |
| 2026-04-23 20:51 | 25.80160 | -79.42914 | 7408 ft | 319 kts | 285° |
| 2026-04-23 20:51 | 25.80683 | -79.45278 | 7061 ft | 318 kts | 285° |
| 2026-04-23 20:51 | 25.81211 | -79.47665 | 6708 ft | 317 kts | 285° |
| 2026-04-23 20:52 | 25.81734 | -79.50016 | 6366 ft | 314 kts | 285° |
| 2026-04-23 20:52 | 25.82241 | -79.52329 | 6020 ft | 300 kts | 285° |
| 2026-04-23 20:52 | 25.82730 | -79.54524 | 5694 ft | 288 kts | 285° |
| 2026-04-23 20:52 | 25.83199 | -79.56654 | 5381 ft | 279 kts | 285° |
| 2026-04-23 20:53 | 25.83657 | -79.58730 | 5082 ft | 279 kts | 285° |
| 2026-04-23 20:53 | 25.84200 | -79.60754 | 4958 ft | 269 kts | 294° |
| 2026-04-23 20:53 | 25.84935 | -79.62678 | 4949 ft | 267 kts | 294° |
| 2026-04-23 20:53 | 25.85700 | -79.64575 | 4955 ft | 270 kts | 298° |
| 2026-04-23 20:54 | 25.86505 | -79.66441 | 4945 ft | 270 kts | 297° |
| 2026-04-23 20:54 | 25.87316 | -79.68333 | 4949 ft | 272 kts | 297° |
| 2026-04-23 20:54 | 25.88133 | -79.70241 | 4951 ft | 275 kts | 297° |
| 2026-04-23 20:54 | 25.88954 | -79.72163 | 4951 ft | 278 kts | 297° |
| 2026-04-23 20:55 | 25.89787 | -79.74118 | 4949 ft | 281 kts | 296° |
| 2026-04-23 20:55 | 25.90626 | -79.76086 | 4944 ft | 280 kts | 296° |
| 2026-04-23 20:55 | 25.91459 | -79.78041 | 4944 ft | 277 kts | 296° |
| 2026-04-23 20:55 | 25.92280 | -79.79974 | 4943 ft | 275 kts | 296° |
| 2026-04-23 20:56 | 25.93090 | -79.81876 | 4946 ft | 273 kts | 296° |
| 2026-04-23 20:56 | 25.93899 | -79.83778 | 4946 ft | 271 kts | 296° |
| 2026-04-23 20:56 | 25.94700 | -79.85661 | 4942 ft | 269 kts | 296° |
| 2026-04-23 20:56 | 25.95495 | -79.87531 | 4938 ft | 267 kts | 296° |
| 2026-04-23 20:57 | 25.96297 | -79.89414 | 4954 ft | 266 kts | 296° |
| 2026-04-23 20:57 | 25.97087 | -79.91280 | 4960 ft | 272 kts | 296° |
| 2026-04-23 20:57 | 25.97914 | -79.93221 | 4966 ft | 282 kts | 296° |
| 2026-04-23 20:57 | 25.98708 | -79.95242 | 4956 ft | 292 kts | 287° |
| 2026-04-23 20:58 | 25.98829 | -79.97510 | 4984 ft | 297 kts | 269° |
| 2026-04-23 20:58 | 25.98885 | -79.99788 | 4962 ft | 291 kts | 271° |
| 2026-04-23 20:58 | 25.98927 | -80.02003 | 4958 ft | 286 kts | 272° |
| 2026-04-23 20:58 | 25.98979 | -80.04205 | 4956 ft | 282 kts | 272° |
| 2026-04-23 20:59 | 25.99030 | -80.06385 | 4959 ft | 278 kts | 272° |
| 2026-04-23 20:59 | 25.99080 | -80.08531 | 4957 ft | 275 kts | 272° |
| 2026-04-23 20:59 | 25.99128 | -80.10630 | 4957 ft | 272 kts | 272° |
| 2026-04-23 20:59 | 25.99175 | -80.12738 | 4957 ft | 269 kts | 272° |
| 2026-04-23 21:00 | 25.99223 | -80.14805 | 4957 ft | 267 kts | 272° |
| 2026-04-23 21:00 | 25.99270 | -80.16871 | 4958 ft | 265 kts | 272° |
| 2026-04-23 21:00 | 25.99316 | -80.18926 | 4958 ft | 264 kts | 272° |
| 2026-04-23 21:00 | 25.99361 | -80.20965 | 4956 ft | 263 kts | 272° |
| 2026-04-23 21:01 | 25.99404 | -80.22984 | 4956 ft | 262 kts | 272° |
| 2026-04-23 21:01 | 25.99450 | -80.24989 | 4954 ft | 261 kts | 272° |
| 2026-04-23 21:01 | 25.99494 | -80.27003 | 4955 ft | 260 kts | 272° |
| 2026-04-23 21:01 | 25.99538 | -80.29008 | 4957 ft | 260 kts | 272° |
| 2026-04-23 21:02 | 25.99582 | -80.31031 | 4959 ft | 263 kts | 272° |
| 2026-04-23 21:02 | 25.99626 | -80.33072 | 4959 ft | 265 kts | 271° |
| 2026-04-23 21:02 | 25.99669 | -80.35124 | 4959 ft | 267 kts | 271° |
| 2026-04-23 21:02 | 25.99713 | -80.37194 | 4955 ft | 269 kts | 271° |
| 2026-04-23 21:03 | 25.99757 | -80.39300 | 4950 ft | 271 kts | 271° |
| 2026-04-23 21:03 | 25.99801 | -80.41379 | 4950 ft | 272 kts | 271° |
| 2026-04-23 21:03 | 25.99845 | -80.43481 | 4952 ft | 272 kts | 271° |
| 2026-04-23 21:03 | 25.99888 | -80.45588 | 4949 ft | 273 kts | 271° |
| 2026-04-23 21:04 | 25.99931 | -80.47688 | 4951 ft | 274 kts | 271° |
| 2026-04-23 21:04 | 25.99906 | -80.49824 | 4950 ft | 274 kts | 269° |
| 2026-04-23 21:04 | 25.99871 | -80.51953 | 4950 ft | 275 kts | 269° |
| 2026-04-23 21:04 | 25.99836 | -80.54076 | 4948 ft | 275 kts | 269° |
| 2026-04-23 21:05 | 25.99560 | -80.56165 | 4852 ft | 278 kts | 246° |
| 2026-04-23 21:05 | 25.98325 | -80.57805 | 4615 ft | 281 kts | 212° |
| 2026-04-23 21:05 | 25.96571 | -80.58680 | 4308 ft | 279 kts | 200° |
| 2026-04-23 21:05 | 25.94714 | -80.59187 | 3952 ft | 270 kts | 179° |
| 2026-04-23 21:06 | 25.92845 | -80.59084 | 3639 ft | 263 kts | 173° |
| 2026-04-23 21:06 | 25.91138 | -80.58555 | 3285 ft | 252 kts | 144° |
| 2026-04-23 21:06 | 25.90093 | -80.57081 | 2968 ft | 242 kts | 110° |
| 2026-04-23 21:06 | 25.89729 | -80.55286 | 2646 ft | 238 kts | 96° |
| 2026-04-23 21:07 | 25.89695 | -80.53449 | 2307 ft | 235 kts | 89° |
| 2026-04-23 21:07 | 25.89788 | -80.51666 | 1971 ft | 232 kts | 87° |
| 2026-04-23 21:07 | 25.89910 | -80.49880 | 1631 ft | 229 kts | 86° |
| 2026-04-23 21:07 | 25.90038 | -80.48170 | 1542 ft | 216 kts | 86° |
| 2026-04-23 21:08 | 25.90164 | -80.46538 | 1524 ft | 202 kts | 86° |
| 2026-04-23 21:08 | 25.90278 | -80.45036 | 1523 ft | 191 kts | 86° |
| 2026-04-23 21:08 | 25.90390 | -80.43577 | 1531 ft | 187 kts | 86° |
| 2026-04-23 21:08 | 25.90499 | -80.42158 | 1533 ft | 183 kts | 87° |
| 2026-04-23 21:09 | 25.90605 | -80.40763 | 1532 ft | 180 kts | 87° |
| 2026-04-23 21:09 | 25.90709 | -80.39384 | 1530 ft | 176 kts | 86° |
| 2026-04-23 21:09 | 25.90808 | -80.38071 | 1527 ft | 165 kts | 86° |
| 2026-04-23 21:09 | 25.90997 | -80.36877 | 1551 ft | 147 kts | 91° |
| 2026-04-23 21:10 | 25.90911 | -80.35794 | 1400 ft | 140 kts | 90° |
| 2026-04-23 21:10 | 25.90993 | -80.34725 | 1162 ft | 136 kts | 86° |
| 2026-04-23 21:10 | 25.91056 | -80.33736 | 1025 ft | 126 kts | 88° |
| 2026-04-23 21:10 | 25.91104 | -80.32777 | 796 ft | 121 kts | 88° |
| 2026-04-23 21:11 | 25.91136 | -80.31885 | 605 ft | 113 kts | 89° |
| 2026-04-23 21:11 | 25.91172 | -80.31020 | 426 ft | 109 kts | 87° |
| 2026-04-23 21:11 | 25.91211 | -80.30190 | 261 ft | 108 kts | 90° |
| 2026-04-23 21:11 | 25.91249 | -80.29344 | 129 ft | 110 kts | 89° |
| 2026-04-23 21:12 | 25.91284 | -80.28509 | 13 ft | 105 kts | 88° |
| 2026-04-23 21:12 | 25.91314 | -80.27766 | 8 ft | 87 kts | 88° |
| 2026-04-23 21:12 | 25.91347 | -80.27148 | 7 ft | 73 kts | 88° |
| 2026-04-23 21:12 | 25.91370 | -80.26636 | 7 ft | 50 kts | 89° |
| 2026-04-23 21:13 | 25.91374 | -80.26455 | 7 ft | 10 kts | 129° |
| 2026-04-23 21:13 | 25.91319 | -80.26446 | 7 ft | 8 kts | 185° |
| 2026-04-23 21:13 | 25.91262 | -80.26450 | 7 ft | 6 kts | 188° |
| 2026-04-23 21:13 | 25.91243 | -80.26483 | 7 ft | 6 kts | 269° |
| 2026-04-23 21:14 | 25.91242 | -80.26540 | 7 ft | 9 kts | 266° |
| 2026-04-23 21:14 | 25.91236 | -80.26619 | 7 ft | 10 kts | 265° |
| 2026-04-23 21:14 | 25.91232 | -80.26704 | 7 ft | 10 kts | 267° |
| 2026-04-23 21:14 | 25.91228 | -80.26789 | 7 ft | 11 kts | 267° |
| 2026-04-23 21:15 | 25.91220 | -80.26858 | 7 ft | 4 kts | 211° |
| 2026-04-23 21:15 | 25.91197 | -80.26838 | 7 ft | 4 kts | 119° |
| 2026-04-23 21:15 | 25.91181 | -80.26805 | 7 ft | 4 kts | 118° |
| 2026-04-23 21:15 | 25.91159 | -80.26765 | 7 ft | 6 kts | 138° |
| 2026-04-23 21:16 | 25.91115 | -80.26757 | 8 ft | 6 kts | 202° |
| 2026-04-23 21:16 | 25.91099 | -80.26793 | 8 ft | 5 kts | 270° |
| 2026-04-23 21:16 | 25.91090 | -80.26833 | 7 ft | 5 kts | 239° |
| 2026-04-23 21:16 | 25.91109 | -80.26859 | 7 ft | 5 kts | 351° |
| 2026-04-23 21:17 | 25.91117 | -80.26874 | 7 ft | 2 kts | 193° |
| 2026-04-23 21:17 | 25.91101 | -80.26874 | 7 ft | 2 kts | 178° |
| 2026-04-23 21:17 | 25.91097 | -80.26874 | 7 ft | 0 kts | 178° |